new icn messageflickr-free-ic3d pan white
LN-NGS DSC_7181 | by sauliusjulius
Back to photostream

LN-NGS DSC_7181

LN-NGS

Boeing 737-8JP

Norwegian

B738

DY / NAX

47A531

Vilnius (VNO) Oslo (OSL)

EYVI 100950Z 25011KT 9999 OVC012 03/01 Q0995 R19/2///95 NOSIG

366 views
9 faves
0 comments
Taken on March 10, 2019